createdAt,value
2023-01-20T00:00:09.410Z,100449.53
2023-01-20T00:05:19.849Z,100457.97
2023-01-20T00:10:21.560Z,100459.69
2023-01-20T00:15:23.197Z,100467.88
2023-01-20T00:20:24.869Z,100470.75
2023-01-20T00:25:26.832Z,100469.78
2023-01-20T00:30:28.574Z,100480.69
2023-01-20T00:35:30.356Z,100480.41
2023-01-20T00:40:32.120Z,100484.78
2023-01-20T00:45:33.785Z,100493.09
2023-01-20T00:50:35.363Z,100489.81
2023-01-20T00:55:37.093Z,100492.94
2023-01-20T01:00:38.848Z,100499.84
2023-01-20T01:05:40.587Z,100510.22
2023-01-20T01:10:42.326Z,100512.97
2023-01-20T01:15:51.804Z,100516.53
2023-01-20T01:20:54.001Z,100525.94
2023-01-20T01:25:56.191Z,100526.75
2023-01-20T01:31:06.549Z,100527.84
2023-01-20T01:36:12.745Z,100539.41
2023-01-20T01:41:15.466Z,100546.22
2023-01-20T01:46:17.371Z,100540.75
2023-01-20T01:51:28.183Z,100548.44
2023-01-20T01:56:30.966Z,100545.00
2023-01-20T02:01:37.081Z,100556.66
2023-01-20T02:06:42.390Z,100562.00
2023-01-20T02:11:47.279Z,100552.63
2023-01-20T02:16:54.938Z,100548.31
2023-01-20T02:22:21.364Z,100552.00
2023-01-20T02:27:22.787Z,100566.97
2023-01-20T02:32:41.541Z,100575.28
2023-01-20T02:37:55.426Z,100573.63
2023-01-20T02:43:11.547Z,100583.06
2023-01-20T02:48:25.799Z,100586.59
2023-01-20T02:53:36.398Z,100586.13
2023-01-20T02:58:48.741Z,100590.31
2023-01-20T03:03:53.216Z,100595.09
2023-01-20T03:08:58.243Z,100601.78
2023-01-20T03:14:06.144Z,100605.19
2023-01-20T03:19:08.435Z,100609.97
2023-01-20T03:24:10.773Z,100615.25
2023-01-20T03:29:12.329Z,100616.06
2023-01-20T03:34:18.121Z,100613.72
2023-01-20T03:39:20.539Z,100624.16
2023-01-20T03:45:05.813Z,100617.63
2023-01-20T03:50:17.731Z,100614.44
2023-01-20T03:55:36.647Z,100622.78
2023-01-20T04:00:44.825Z,100627.28
2023-01-20T04:05:49.193Z,100623.81
2023-01-20T04:10:51.511Z,100627.78
2023-01-20T04:15:53.318Z,100643.72
2023-01-20T04:21:02.156Z,100639.13
2023-01-20T04:26:03.853Z,100654.19
2023-01-20T04:31:05.654Z,100652.63
2023-01-20T04:36:07.676Z,100645.91
2023-01-20T04:41:11.610Z,100652.63
2023-01-20T04:46:14.256Z,100655.22
2023-01-20T04:51:16.056Z,100660.25
2023-01-20T04:56:17.577Z,100664.47
2023-01-20T05:01:19.361Z,100671.09
2023-01-20T05:06:20.997Z,100669.69
2023-01-20T05:11:22.653Z,100669.88
2023-01-20T05:16:24.365Z,100676.19
2023-01-20T05:21:27.479Z,100671.22
2023-01-20T05:26:29.019Z,100679.28
2023-01-20T05:31:31.349Z,100682.16
2023-01-20T05:36:33.073Z,100682.66
2023-01-20T05:41:34.601Z,100689.41
2023-01-20T05:46:36.192Z,100702.75
2023-01-20T05:51:37.788Z,100706.56
2023-01-20T05:56:39.352Z,100712.66
2023-01-20T06:01:40.951Z,100714.19
2023-01-20T06:06:42.553Z,100714.88
2023-01-20T06:11:44.083Z,100720.31
2023-01-20T06:16:45.644Z,100724.56
2023-01-20T06:21:48.040Z,100724.34
2023-01-20T06:26:52.821Z,100727.00
2023-01-20T06:31:54.406Z,100734.63
2023-01-20T06:36:56.318Z,100748.34
2023-01-20T06:41:59.120Z,100745.66
2023-01-20T06:47:00.717Z,100744.25
2023-01-20T06:52:02.254Z,100758.22
2023-01-20T06:57:03.791Z,100767.75
2023-01-20T07:02:05.432Z,100767.38
2023-01-20T07:07:07.106Z,100764.47
2023-01-20T07:12:08.658Z,100764.69
2023-01-20T07:17:12.117Z,100774.31
2023-01-20T07:22:13.756Z,100782.44
2023-01-20T07:27:15.339Z,100789.47
2023-01-20T07:32:16.860Z,100794.50
2023-01-20T07:37:18.428Z,100804.50
2023-01-20T07:42:20.008Z,100797.34
2023-01-20T07:47:22.511Z,100806.97
2023-01-20T07:52:24.051Z,100818.09
2023-01-20T07:57:25.569Z,100832.63
2023-01-20T08:02:27.100Z,100832.19
2023-01-20T08:07:28.606Z,100833.72
2023-01-20T08:12:30.524Z,100840.66
2023-01-20T08:17:32.133Z,100851.44
2023-01-20T08:22:34.473Z,100859.13
2023-01-20T08:27:36.105Z,100863.22
2023-01-20T08:32:37.686Z,100859.44
2023-01-20T08:37:39.512Z,100872.22
2023-01-20T08:42:41.173Z,100877.13
2023-01-20T08:47:42.991Z,100882.75
2023-01-20T08:52:44.879Z,100873.59
2023-01-20T08:57:46.448Z,100873.66
2023-01-20T09:02:51.855Z,100877.41
2023-01-20T09:07:53.464Z,100884.34
2023-01-20T09:12:55.035Z,100884.50
2023-01-20T09:17:56.642Z,100887.25
2023-01-20T09:23:01.663Z,100887.63
2023-01-20T09:28:03.339Z,100877.47
2023-01-20T09:33:05.047Z,100883.81
2023-01-20T09:38:06.576Z,100885.38
2023-01-20T09:43:40.037Z,100892.47
2023-01-20T09:49:27.278Z,100883.44
2023-01-20T09:54:38.481Z,100887.19
2023-01-20T09:59:50.747Z,100893.53
2023-01-20T10:04:57.272Z,100892.28
2023-01-20T10:10:16.553Z,100896.78
2023-01-20T10:15:26.721Z,100906.66
2023-01-20T10:20:36.070Z,100902.97
2023-01-20T10:25:52.995Z,100904.38
2023-01-20T10:30:58.552Z,100898.03
2023-01-20T10:36:00.850Z,100906.22
2023-01-20T10:41:19.536Z,100901.47
2023-01-20T10:46:24.234Z,100891.59
2023-01-20T10:51:34.797Z,100889.31
2023-01-20T10:56:46.271Z,100883.31
2023-01-20T11:01:59.414Z,100889.56
2023-01-20T11:07:16.974Z,100885.91
2023-01-20T11:12:24.614Z,100885.22
2023-01-20T11:17:26.943Z,100884.91
2023-01-20T11:22:33.166Z,100886.00
2023-01-20T11:27:44.575Z,100884.09
2023-01-20T11:32:46.263Z,100882.00
2023-01-20T11:37:48.251Z,100885.44
2023-01-20T11:42:51.803Z,100871.84
2023-01-20T11:48:03.693Z,100873.53
2023-01-20T11:53:40.582Z,100880.53
2023-01-20T11:59:22.523Z,100874.81
2023-01-20T12:04:33.153Z,100869.09
2023-01-20T12:09:39.238Z,100874.13
2023-01-20T12:14:46.184Z,100874.97
2023-01-20T12:19:57.140Z,100881.38
2023-01-20T12:25:04.103Z,100878.75
2023-01-20T12:30:34.521Z,100884.91
2023-01-20T12:35:46.995Z,100896.88
2023-01-20T12:40:52.632Z,100903.41
2023-01-20T12:46:23.322Z,100895.28
2023-01-20T12:52:09.466Z,100900.00
2023-01-20T12:57:25.665Z,100901.94
2023-01-20T13:03:11.648Z,100899.03
2023-01-20T13:08:18.991Z,100904.28
2023-01-20T13:13:32.440Z,100904.72
2023-01-20T13:18:51.140Z,100912.63
2023-01-20T13:23:53.151Z,100911.69
2023-01-20T13:28:57.170Z,100909.66
2023-01-20T13:34:23.814Z,100910.75
2023-01-20T13:39:42.083Z,100909.03
2023-01-20T13:44:43.927Z,100906.53
2023-01-20T13:49:53.698Z,100904.69
2023-01-20T13:54:55.297Z,100915.38
2023-01-20T13:59:57.157Z,100916.53
2023-01-20T14:04:58.941Z,100910.09
2023-01-20T14:10:01.931Z,100934.06
2023-01-20T14:15:03.820Z,100928.91
2023-01-20T14:20:20.266Z,100936.16
2023-01-20T14:25:27.355Z,100925.34
2023-01-20T14:30:29.066Z,100933.94
2023-01-20T14:35:34.045Z,100933.44
2023-01-20T14:40:35.989Z,100951.22
2023-01-20T14:45:38.031Z,100953.31
2023-01-20T14:50:40.679Z,100960.50
2023-01-20T14:55:55.975Z,100959.56
2023-01-20T15:01:05.085Z,100954.38
2023-01-20T15:06:09.834Z,100976.09
2023-01-20T15:11:14.621Z,100974.94
2023-01-20T15:16:31.300Z,100965.09
2023-01-20T15:21:35.536Z,100975.31
2023-01-20T15:26:38.095Z,100981.19
2023-01-20T15:31:39.815Z,100984.78
2023-01-20T15:36:41.663Z,100992.06
2023-01-20T15:41:43.747Z,101005.13
2023-01-20T15:46:45.476Z,101008.06
2023-01-20T15:51:47.127Z,101021.59
2023-01-20T15:56:48.708Z,101024.03
2023-01-20T16:01:50.834Z,101031.69
2023-01-20T16:06:52.664Z,101041.06
2023-01-20T16:11:56.036Z,101043.66
2023-01-20T16:16:57.653Z,101048.50
2023-01-20T16:21:59.314Z,101059.38
2023-01-20T16:27:03.830Z,101063.75
2023-01-20T16:32:05.938Z,101077.72
2023-01-20T16:37:07.536Z,101081.72
2023-01-20T16:42:14.222Z,101077.97
2023-01-20T16:47:16.039Z,101084.66
2023-01-20T16:52:17.639Z,101093.56
2023-01-20T16:57:19.391Z,101092.19
2023-01-20T17:02:21.156Z,101100.06
2023-01-20T17:07:23.235Z,101099.47
2023-01-20T17:12:24.870Z,101123.66
2023-01-20T17:17:26.458Z,101124.50
2023-01-20T17:22:28.122Z,101123.78
2023-01-20T17:27:29.886Z,101136.59
2023-01-20T17:32:31.919Z,101143.84
2023-01-20T17:37:33.887Z,101147.75
2023-01-20T17:42:35.524Z,101156.19
2023-01-20T17:47:37.385Z,101167.38
2023-01-20T17:52:39.263Z,101181.84
2023-01-20T17:57:40.973Z,101186.56
2023-01-20T18:02:42.693Z,101190.16
2023-01-20T18:07:44.396Z,101204.63
2023-01-20T18:12:47.224Z,101212.72
2023-01-20T18:17:49.194Z,101217.88
2023-01-20T18:22:51.289Z,101219.84
2023-01-20T18:27:53.221Z,101227.00
2023-01-20T18:32:56.782Z,101234.63
2023-01-20T18:37:58.515Z,101235.66
2023-01-20T18:43:00.344Z,101242.34
2023-01-20T18:48:02.453Z,101247.63
2023-01-20T18:53:04.373Z,101252.56
2023-01-20T18:58:06.061Z,101265.94
2023-01-20T19:03:07.944Z,101260.84
2023-01-20T19:08:09.759Z,101252.03
2023-01-20T19:13:12.495Z,101255.75
2023-01-20T19:18:14.054Z,101261.41
2023-01-20T19:23:15.642Z,101272.16
2023-01-20T19:28:17.444Z,101282.00
2023-01-20T19:33:19.079Z,101285.69
2023-01-20T19:38:20.805Z,101289.94
2023-01-20T19:43:22.424Z,101308.28
2023-01-20T19:48:24.001Z,101316.66
2023-01-20T19:53:25.626Z,101320.06
2023-01-20T19:58:27.706Z,101320.38
2023-01-20T20:03:29.266Z,101332.34
2023-01-20T20:08:31.015Z,101334.44
2023-01-20T20:13:32.624Z,101344.03
2023-01-20T20:18:34.305Z,101352.41
2023-01-20T20:23:36.007Z,101369.22
2023-01-20T20:28:37.702Z,101369.13
2023-01-20T20:33:39.433Z,101387.00
2023-01-20T20:38:41.484Z,101391.97
2023-01-20T20:43:43.577Z,101396.09
2023-01-20T20:48:45.484Z,101408.88
2023-01-20T20:53:47.094Z,101419.09
2023-01-20T20:59:00.967Z,101422.72
2023-01-20T21:04:03.695Z,101424.47
2023-01-20T21:09:05.448Z,101444.63
2023-01-20T21:14:07.109Z,101457.28
2023-01-20T21:19:08.834Z,101463.56
2023-01-20T21:24:10.503Z,101477.81
2023-01-20T21:29:12.351Z,101476.28
2023-01-20T21:34:15.459Z,101485.75
2023-01-20T21:39:17.644Z,101489.75
2023-01-20T21:44:19.558Z,101503.19
2023-01-20T21:49:21.263Z,101501.84
2023-01-20T21:54:23.042Z,101507.28
2023-01-20T21:59:25.477Z,101512.84
2023-01-20T22:04:27.285Z,101524.81
2023-01-20T22:09:28.871Z,101521.31
2023-01-20T22:14:30.900Z,101525.72
2023-01-20T22:19:32.933Z,101536.03
2023-01-20T22:24:34.535Z,101554.28
2023-01-20T22:29:36.204Z,101567.00
2023-01-20T22:34:37.971Z,101567.19
2023-01-20T22:39:39.465Z,101578.34
2023-01-20T22:44:41.221Z,101592.28
2023-01-20T22:49:42.913Z,101593.47
2023-01-20T22:54:44.752Z,101595.97
2023-01-20T22:59:46.295Z,101597.16
2023-01-20T23:04:47.841Z,101613.59
2023-01-20T23:09:49.553Z,101619.97
2023-01-20T23:14:51.121Z,101617.19
2023-01-20T23:19:52.944Z,101622.75
2023-01-20T23:24:54.567Z,101628.50
2023-01-20T23:29:56.266Z,101636.94
2023-01-20T23:34:57.921Z,101643.03
2023-01-20T23:39:59.579Z,101652.22
2023-01-20T23:45:01.236Z,101660.56
2023-01-20T23:50:03.651Z,101665.66
2023-01-20T23:55:05.767Z,101663.03
